createdAt,value
2023-03-21T00:00:31.342Z,1082.00
2023-03-21T00:01:32.330Z,1087.00
2023-03-21T00:02:32.345Z,1088.00
2023-03-21T00:03:31.365Z,1086.00
2023-03-21T00:04:44.515Z,1086.00
2023-03-21T00:05:32.388Z,1084.00
2023-03-21T00:06:32.290Z,1084.00
2023-03-21T00:07:32.294Z,1082.00
2023-03-21T00:08:32.283Z,1079.00
2023-03-21T00:09:32.293Z,1078.00
2023-03-21T00:11:32.274Z,1076.00
2023-03-21T00:12:32.252Z,1077.00
2023-03-21T00:13:32.240Z,1079.00
2023-03-21T00:14:32.238Z,1083.00
2023-03-21T00:15:42.643Z,1082.00
2023-03-21T00:16:34.895Z,1082.00
2023-03-21T00:17:31.295Z,1082.00
2023-03-21T00:18:31.209Z,1082.00
2023-03-21T00:19:31.196Z,1082.00
2023-03-21T00:20:32.262Z,1082.00
2023-03-21T00:21:51.883Z,1079.00
2023-03-21T00:22:32.261Z,1078.00
2023-03-21T00:23:32.240Z,1079.00
2023-03-21T00:24:32.248Z,1084.00
2023-03-21T00:25:32.232Z,1083.00
2023-03-21T00:26:32.235Z,1082.00
2023-03-21T00:27:50.396Z,1081.00
2023-03-21T00:28:32.217Z,1078.00
2023-03-21T00:29:31.215Z,1079.00
2023-03-21T00:30:32.186Z,1080.00
2023-03-21T00:31:32.204Z,1082.00
2023-03-21T00:32:35.560Z,1084.00
2023-03-21T00:33:32.164Z,1084.00
2023-03-21T00:34:42.950Z,1083.00
2023-03-21T00:35:57.939Z,1082.00
2023-03-21T00:36:32.328Z,1077.00
2023-03-21T00:37:32.158Z,1078.00
2023-03-21T00:38:32.169Z,1075.00
2023-03-21T00:39:32.126Z,1072.00
2023-03-21T00:40:35.396Z,1072.00
2023-03-21T00:41:42.143Z,1074.00
2023-03-21T00:42:32.114Z,1074.00
2023-03-21T00:43:31.092Z,1076.00
2023-03-21T00:44:32.123Z,1075.00
2023-03-21T00:45:31.087Z,1074.00
2023-03-21T00:46:42.800Z,1071.00
2023-03-21T00:47:32.117Z,1073.00
2023-03-21T00:48:31.128Z,1075.00
2023-03-21T00:49:32.066Z,1075.00
2023-03-21T00:50:32.054Z,1074.00
2023-03-21T00:51:32.033Z,1074.00
2023-03-21T00:52:40.710Z,1075.00
2023-03-21T00:53:32.018Z,1076.00
2023-03-21T00:54:32.043Z,1078.00
2023-03-21T00:55:32.009Z,1077.00
2023-03-21T00:56:32.023Z,1079.00
2023-03-21T00:57:38.505Z,1079.00
2023-03-21T00:58:31.991Z,1081.00
2023-03-21T00:59:32.003Z,1079.00
2023-03-21T01:00:32.035Z,1079.00
2023-03-21T01:01:32.318Z,1084.00
2023-03-21T01:02:30.967Z,1087.00
2023-03-21T01:03:31.956Z,1085.00
2023-03-21T01:04:31.946Z,1083.00
2023-03-21T01:05:31.962Z,1081.00
2023-03-21T01:06:31.959Z,1082.00
2023-03-21T01:07:31.942Z,1080.00
2023-03-21T01:08:44.640Z,1081.00
2023-03-21T01:09:31.916Z,1084.00
2023-03-21T01:10:31.921Z,1084.00
2023-03-21T01:11:31.910Z,1082.00
2023-03-21T01:12:31.902Z,1080.00
2023-03-21T01:13:33.137Z,1080.00
2023-03-21T01:14:31.722Z,1079.00
2023-03-21T01:15:31.862Z,1075.00
2023-03-21T01:16:32.028Z,1073.00
2023-03-21T01:17:31.870Z,1073.00
2023-03-21T01:18:31.844Z,1071.00
2023-03-21T01:19:48.302Z,1069.00
2023-03-21T01:20:31.844Z,1070.00
2023-03-21T01:21:31.836Z,1070.00
2023-03-21T01:22:31.811Z,1070.00
2023-03-21T01:23:31.822Z,1072.00
2023-03-21T01:24:32.490Z,1072.00
2023-03-21T01:25:31.794Z,1070.00
2023-03-21T01:26:31.783Z,1071.00
2023-03-21T01:27:31.771Z,1074.00
2023-03-21T01:28:31.810Z,1071.00
2023-03-21T01:29:31.788Z,1070.00
2023-03-21T01:30:36.949Z,1071.00
2023-03-21T01:31:31.845Z,1070.00
2023-03-21T01:32:31.734Z,1066.00
2023-03-21T01:33:31.730Z,1066.00
2023-03-21T01:34:31.744Z,1064.00
2023-03-21T01:35:37.521Z,1061.00
2023-03-21T01:36:31.774Z,1066.00
2023-03-21T01:37:31.704Z,1065.00
2023-03-21T01:38:31.695Z,1063.00
2023-03-21T01:39:31.687Z,1058.00
2023-03-21T01:40:31.740Z,1055.00
2023-03-21T01:41:44.894Z,1054.00
2023-03-21T01:42:31.692Z,1055.00
2023-03-21T01:43:31.672Z,1054.00
2023-03-21T01:44:31.668Z,1058.00
2023-03-21T01:45:30.672Z,1057.00
2023-03-21T01:46:34.813Z,1058.00
2023-03-21T01:47:31.665Z,1057.00
2023-03-21T01:48:30.632Z,1061.00
2023-03-21T01:49:31.653Z,1063.00
2023-03-21T01:50:31.657Z,1062.00
2023-03-21T01:51:31.624Z,1062.00
2023-03-21T01:52:38.700Z,1064.00
2023-03-21T01:53:31.702Z,1065.00
2023-03-21T01:54:31.599Z,1064.00
2023-03-21T01:55:31.608Z,1064.00
2023-03-21T01:56:31.623Z,1063.00
2023-03-21T01:57:41.037Z,1066.00
2023-03-21T01:58:31.567Z,1065.00
2023-03-21T01:59:31.572Z,1063.00
2023-03-21T02:00:31.555Z,1059.00
2023-03-21T02:01:31.547Z,1062.00
2023-03-21T02:02:31.546Z,1067.00
2023-03-21T02:03:36.033Z,1068.00
2023-03-21T02:04:30.566Z,1068.00
2023-03-21T02:05:31.539Z,1067.00
2023-03-21T02:06:31.514Z,1070.00
2023-03-21T02:07:31.510Z,1071.00
2023-03-21T02:08:39.269Z,1068.00
2023-03-21T02:09:31.491Z,1064.00
2023-03-21T02:10:30.473Z,1065.00
2023-03-21T02:11:31.470Z,1065.00
2023-03-21T02:12:31.508Z,1066.00
2023-03-21T02:13:30.465Z,1064.00
2023-03-21T02:14:31.463Z,1066.00
2023-03-21T02:15:31.437Z,1059.00
2023-03-21T02:16:31.503Z,1058.00
2023-03-21T02:17:31.423Z,1054.00
2023-03-21T02:18:31.434Z,1057.00
2023-03-21T02:19:37.215Z,1059.00
2023-03-21T02:20:31.437Z,1061.00
2023-03-21T02:21:31.415Z,1061.00
2023-03-21T02:22:30.389Z,1059.00
2023-03-21T02:23:31.385Z,1059.00
2023-03-21T02:24:31.386Z,1060.00
2023-03-21T02:25:31.414Z,1062.00
2023-03-21T02:26:41.286Z,1062.00
2023-03-21T02:27:31.370Z,1061.00
2023-03-21T02:28:30.387Z,1060.00
2023-03-21T02:29:31.339Z,1059.00
2023-03-21T02:30:37.493Z,1058.00
2023-03-21T02:31:31.470Z,1058.00
2023-03-21T02:32:37.354Z,1059.00
2023-03-21T02:33:31.330Z,1058.00
2023-03-21T02:34:31.317Z,1056.00
2023-03-21T02:35:30.303Z,1058.00
2023-03-21T02:36:31.414Z,1061.00
2023-03-21T02:37:37.568Z,1061.00
2023-03-21T02:38:31.285Z,1059.00
2023-03-21T02:39:31.274Z,1058.00
2023-03-21T02:40:30.263Z,1056.00
2023-03-21T02:41:39.602Z,1057.00
2023-03-21T02:42:31.262Z,1058.00
2023-03-21T02:43:31.249Z,1055.00
2023-03-21T02:44:31.260Z,1058.00
2023-03-21T02:45:31.238Z,1057.00
2023-03-21T02:46:40.134Z,1058.00
2023-03-21T02:47:31.220Z,1057.00
2023-03-21T02:48:41.292Z,1059.00
2023-03-21T02:49:31.216Z,1059.00
2023-03-21T02:50:31.250Z,1060.00
2023-03-21T02:51:31.216Z,1059.00
2023-03-21T02:52:38.547Z,1061.00
2023-03-21T02:53:31.199Z,1063.00
2023-03-21T02:54:45.294Z,1064.00
2023-03-21T02:55:31.184Z,1063.00
2023-03-21T02:56:31.167Z,1063.00
2023-03-21T02:57:41.872Z,1061.00
2023-03-21T02:58:31.152Z,1060.00
2023-03-21T02:59:31.147Z,1057.00
2023-03-21T03:00:31.157Z,1057.00
2023-03-21T03:01:31.160Z,1056.00
2023-03-21T03:02:31.146Z,1051.00
2023-03-21T03:03:34.757Z,1049.00
2023-03-21T03:04:31.282Z,1046.00
2023-03-21T03:05:31.091Z,1048.00
2023-03-21T03:06:31.096Z,1046.00
2023-03-21T03:07:31.090Z,1046.00
2023-03-21T03:08:41.170Z,1046.00
2023-03-21T03:09:31.071Z,1045.00
2023-03-21T03:10:30.052Z,1045.00
2023-03-21T03:11:31.062Z,1046.00
2023-03-21T03:12:31.055Z,1045.00
2023-03-21T03:13:31.046Z,1042.00
2023-03-21T03:15:00.112Z,1041.00
2023-03-21T03:15:31.062Z,1040.00
2023-03-21T03:16:31.037Z,1043.00
2023-03-21T03:17:31.015Z,1044.00
2023-03-21T03:18:30.001Z,1045.00
2023-03-21T03:19:34.466Z,1045.00
2023-03-21T03:20:31.012Z,1049.00
2023-03-21T03:21:31.022Z,1053.00
2023-03-21T03:22:30.983Z,1053.00
2023-03-21T03:23:30.988Z,1051.00
2023-03-21T03:24:30.957Z,1052.00
2023-03-21T03:25:42.036Z,1054.00
2023-03-21T03:26:30.956Z,1053.00
2023-03-21T03:27:30.972Z,1049.00
2023-03-21T03:28:30.940Z,1049.00
2023-03-21T03:29:30.941Z,1048.00
2023-03-21T03:30:41.221Z,1047.00
2023-03-21T03:31:30.946Z,1048.00
2023-03-21T03:32:30.965Z,1047.00
2023-03-21T03:33:30.921Z,1047.00
2023-03-21T03:34:31.051Z,1045.00
2023-03-21T03:35:30.958Z,1045.00
2023-03-21T03:36:32.825Z,1048.00
2023-03-21T03:37:30.877Z,1048.00
2023-03-21T03:38:30.863Z,1044.00
2023-03-21T03:39:30.879Z,1043.00
2023-03-21T03:40:30.852Z,1043.00
2023-03-21T03:41:50.289Z,1043.00
2023-03-21T03:42:30.852Z,1044.00
2023-03-21T03:43:30.835Z,1044.00
2023-03-21T03:44:30.843Z,1044.00
2023-03-21T03:45:30.900Z,1043.00
2023-03-21T03:46:30.847Z,1043.00
2023-03-21T03:47:34.901Z,1043.00
2023-03-21T03:48:30.968Z,1043.00
2023-03-21T03:49:30.798Z,1044.00
2023-03-21T03:50:30.842Z,1046.00
2023-03-21T03:51:29.773Z,1043.00
2023-03-21T03:52:30.768Z,1043.00
2023-03-21T03:53:30.758Z,1041.00
2023-03-21T03:54:30.776Z,1037.00
2023-03-21T03:55:29.745Z,1039.00
2023-03-21T03:56:29.730Z,1041.00
2023-03-21T03:57:29.753Z,1042.00
2023-03-21T03:58:42.928Z,1041.00
2023-03-21T03:59:30.716Z,1042.00
2023-03-21T04:00:30.704Z,1045.00
2023-03-21T04:01:30.731Z,1046.00
2023-03-21T04:02:30.718Z,1043.00
2023-03-21T04:03:39.203Z,1046.00
2023-03-21T04:04:30.741Z,1045.00
2023-03-21T04:05:29.864Z,1044.00
2023-03-21T04:06:29.690Z,1047.00
2023-03-21T04:07:30.677Z,1047.00
2023-03-21T04:08:30.655Z,1047.00
2023-03-21T04:09:43.147Z,1047.00
2023-03-21T04:10:30.650Z,1049.00
2023-03-21T04:11:30.639Z,1047.00
2023-03-21T04:12:29.635Z,1044.00
2023-03-21T04:13:30.617Z,1042.00
2023-03-21T04:14:42.054Z,1042.00
2023-03-21T04:15:30.598Z,1042.00
2023-03-21T04:16:30.657Z,1042.00
2023-03-21T04:17:30.594Z,1044.00
2023-03-21T04:18:30.581Z,1042.00
2023-03-21T04:19:30.592Z,1042.00
2023-03-21T04:20:36.593Z,1041.00
2023-03-21T04:21:30.556Z,1040.00
2023-03-21T04:22:30.558Z,1038.00
2023-03-21T04:23:30.548Z,1040.00
2023-03-21T04:24:30.532Z,1036.00
2023-03-21T04:25:33.971Z,1037.00
2023-03-21T04:26:30.561Z,1037.00
2023-03-21T04:27:30.513Z,1036.00
2023-03-21T04:28:29.513Z,1036.00
2023-03-21T04:29:29.497Z,1038.00
2023-03-21T04:30:30.488Z,1038.00
2023-03-21T04:31:29.572Z,1039.00
2023-03-21T04:32:29.492Z,1039.00
2023-03-21T04:33:30.485Z,1037.00
2023-03-21T04:34:29.468Z,1038.00
2023-03-21T04:35:30.511Z,1038.00
2023-03-21T04:36:30.591Z,1039.00
2023-03-21T04:37:31.117Z,1039.00
2023-03-21T04:38:30.934Z,1039.00
2023-03-21T04:39:30.739Z,1039.00
2023-03-21T04:40:30.792Z,1037.00
2023-03-21T04:41:30.861Z,1036.00
2023-03-21T04:42:30.923Z,1034.00
2023-03-21T04:43:30.963Z,1037.00
2023-03-21T04:44:31.027Z,1038.00
2023-03-21T04:45:31.175Z,1041.00
2023-03-21T04:46:31.142Z,1043.00
2023-03-21T04:47:30.202Z,1044.00
2023-03-21T04:48:31.362Z,1040.00
2023-03-21T04:49:31.303Z,1039.00
2023-03-21T04:50:31.345Z,1040.00
2023-03-21T04:51:30.426Z,1039.00
2023-03-21T04:52:31.522Z,1037.00
2023-03-21T04:53:31.540Z,1035.00
2023-03-21T04:54:31.626Z,1037.00
2023-03-21T04:55:31.642Z,1037.00
2023-03-21T04:56:31.688Z,1038.00
2023-03-21T04:57:31.795Z,1038.00
2023-03-21T04:58:31.806Z,1038.00
2023-03-21T04:59:31.882Z,1038.00
2023-03-21T05:00:31.927Z,1039.00
2023-03-21T05:01:32.138Z,1038.00
2023-03-21T05:02:32.055Z,1039.00
2023-03-21T05:03:32.332Z,1039.00
2023-03-21T05:04:32.150Z,1038.00
2023-03-21T05:05:31.201Z,1040.00
2023-03-21T05:06:32.286Z,1041.00
2023-03-21T05:07:32.353Z,1040.00
2023-03-21T05:08:32.410Z,1039.00
2023-03-21T05:09:32.455Z,1038.00
2023-03-21T05:10:31.540Z,1036.00
2023-03-21T05:11:32.585Z,1033.00
2023-03-21T05:12:31.647Z,1034.00
2023-03-21T05:13:31.731Z,1036.00
2023-03-21T05:14:32.792Z,1039.00
2023-03-21T05:15:32.841Z,1037.00
2023-03-21T05:16:32.957Z,1035.00
2023-03-21T05:17:31.963Z,1034.00
2023-03-21T05:18:33.032Z,1033.00
2023-03-21T05:19:33.072Z,1031.00
2023-03-21T05:20:33.138Z,1031.00
2023-03-21T05:21:32.188Z,1032.00
2023-03-21T05:22:32.265Z,1029.00
2023-03-21T05:23:33.342Z,1028.00
2023-03-21T05:24:33.425Z,1030.00
2023-03-21T05:25:33.467Z,1031.00
2023-03-21T05:26:32.540Z,1032.00
2023-03-21T05:27:33.616Z,1034.00
2023-03-21T05:28:32.680Z,1033.00
2023-03-21T05:29:33.733Z,1034.00
2023-03-21T05:30:33.885Z,1036.00
2023-03-21T05:31:33.850Z,1037.00
2023-03-21T05:32:33.923Z,1040.00
2023-03-21T05:33:33.989Z,1038.00
2023-03-21T05:34:34.053Z,1036.00
2023-03-21T05:35:34.274Z,1033.00
2023-03-21T05:36:34.158Z,1034.00
2023-03-21T05:37:33.209Z,1035.00
2023-03-21T05:38:34.270Z,1033.00
2023-03-21T05:39:34.315Z,1032.00
2023-03-21T05:40:33.410Z,1034.00
2023-03-21T05:41:33.443Z,1036.00
2023-03-21T05:42:33.516Z,1036.00
2023-03-21T05:43:34.553Z,1033.00
2023-03-21T05:44:33.606Z,1032.00
2023-03-21T05:45:34.670Z,1033.00
2023-03-21T05:46:34.821Z,1035.00
2023-03-21T05:47:33.764Z,1032.00
2023-03-21T05:48:34.864Z,1030.00
2023-03-21T05:49:34.882Z,1032.00
2023-03-21T05:50:35.213Z,1035.00
2023-03-21T05:51:35.000Z,1035.00
2023-03-21T05:52:35.070Z,1035.00
2023-03-21T05:53:35.137Z,1035.00
2023-03-21T05:54:35.209Z,1034.00
2023-03-21T05:55:35.392Z,1031.00
2023-03-21T05:56:35.309Z,1028.00
2023-03-21T05:57:35.349Z,1028.00
2023-03-21T05:58:35.422Z,1029.00
2023-03-21T05:59:35.497Z,1027.00
2023-03-21T06:00:35.522Z,1027.00
2023-03-21T06:01:35.581Z,1025.00
2023-03-21T06:02:34.684Z,1024.00
2023-03-21T06:03:35.881Z,1023.00
2023-03-21T06:04:35.789Z,1028.00
2023-03-21T06:05:35.953Z,1028.00
2023-03-21T06:06:35.924Z,1031.00
2023-03-21T06:07:35.943Z,1027.00
2023-03-21T06:08:35.666Z,1025.00
2023-03-21T06:09:36.065Z,1026.00
2023-03-21T06:10:36.174Z,1025.00
2023-03-21T06:11:36.196Z,1023.00
2023-03-21T06:12:36.316Z,1027.00
2023-03-21T06:13:36.314Z,1029.00
2023-03-21T06:14:36.382Z,1028.00
2023-03-21T06:15:36.921Z,1028.00
2023-03-21T06:16:35.493Z,1029.00
2023-03-21T06:17:35.566Z,1029.00
2023-03-21T06:18:36.628Z,1029.00
2023-03-21T06:19:36.656Z,1030.00
2023-03-21T06:20:35.690Z,1035.00
2023-03-21T06:21:36.767Z,1035.00
2023-03-21T06:22:36.809Z,1039.00
2023-03-21T06:23:36.851Z,869.00
2023-03-21T06:24:36.879Z,749.00
2023-03-21T06:25:37.192Z,714.00
2023-03-21T06:26:35.930Z,670.00
2023-03-21T06:27:36.939Z,653.00
2023-03-21T06:29:35.994Z,617.00
2023-03-21T06:32:37.161Z,594.00
2023-03-21T06:34:39.392Z,605.00
2023-03-21T06:45:36.714Z,597.00
2023-03-21T06:49:37.169Z,629.00
2023-03-21T06:52:36.138Z,699.00
2023-03-21T06:53:36.244Z,768.00
2023-03-21T07:07:37.042Z,1183.00
2023-03-21T07:11:36.005Z,1255.00
2023-03-21T07:30:37.149Z,1680.00
2023-03-21T07:46:37.946Z,2059.00
2023-03-21T07:52:38.194Z,2232.00
2023-03-21T08:01:37.553Z,2295.00
2023-03-21T08:02:37.749Z,2268.00
2023-03-21T08:03:38.751Z,2255.00
2023-03-21T08:12:38.125Z,1822.00
2023-03-21T11:36:44.948Z,1275.00
2023-03-21T11:38:44.924Z,1342.00
2023-03-21T11:39:44.954Z,1361.00
2023-03-21T11:40:44.943Z,1376.00
2023-03-21T11:41:45.284Z,1438.00
2023-03-21T11:42:45.041Z,1468.00
2023-03-21T11:44:45.050Z,1467.00
2023-03-21T11:45:45.117Z,1467.00
2023-03-21T11:46:45.271Z,1470.00
2023-03-21T11:49:45.677Z,1478.00
2023-03-21T11:50:45.398Z,1490.00
2023-03-21T11:51:45.775Z,1499.00
2023-03-21T11:53:45.624Z,1509.00
2023-03-21T11:58:45.827Z,1521.00
2023-03-21T11:59:45.853Z,1523.00
2023-03-21T12:00:45.915Z,1524.00
2023-03-21T12:01:45.975Z,1522.00
2023-03-21T12:02:45.068Z,1524.00
2023-03-21T12:03:48.484Z,1522.00
2023-03-21T12:04:46.132Z,1520.00
2023-03-21T12:05:45.981Z,1521.00
2023-03-21T12:06:46.002Z,1518.00
2023-03-21T12:07:45.960Z,1520.00
2023-03-21T12:08:45.950Z,1521.00
2023-03-21T12:09:45.943Z,1521.00
2023-03-21T12:10:45.933Z,1525.00
2023-03-21T12:11:45.982Z,1528.00
2023-03-21T12:12:45.957Z,1528.00
2023-03-21T12:14:45.926Z,1529.00
2023-03-21T12:15:45.969Z,1528.00
2023-03-21T12:16:45.918Z,1527.00
2023-03-21T12:18:45.881Z,1529.00
2023-03-21T12:19:45.884Z,1531.00
2023-03-21T12:20:45.929Z,1531.00
2023-03-21T12:21:45.880Z,1533.00
2023-03-21T12:22:45.855Z,1534.00
2023-03-21T12:23:45.844Z,1538.00
2023-03-21T12:26:45.846Z,1541.00
2023-03-21T12:27:45.832Z,1548.00
2023-03-21T12:28:45.811Z,1548.00
2023-03-21T12:30:45.840Z,1552.00
2023-03-21T12:31:45.994Z,1555.00
2023-03-21T12:32:45.785Z,1556.00
2023-03-21T12:33:45.774Z,1561.00
2023-03-21T12:34:45.766Z,1560.00
2023-03-21T12:35:45.810Z,1560.00
2023-03-21T12:36:45.897Z,1561.00
2023-03-21T12:37:45.784Z,1563.00
2023-03-21T12:38:45.724Z,1563.00
2023-03-21T12:39:45.720Z,1564.00
2023-03-21T12:40:45.735Z,1568.00
2023-03-21T12:41:45.760Z,1572.00
2023-03-21T12:42:45.787Z,1571.00
2023-03-21T12:43:45.700Z,1571.00
2023-03-21T12:44:45.691Z,1573.00
2023-03-21T12:45:47.603Z,1577.00
2023-03-21T12:46:45.738Z,1579.00
2023-03-21T12:48:45.682Z,1581.00
2023-03-21T12:49:45.663Z,1587.00
2023-03-21T12:50:45.651Z,1592.00
2023-03-21T12:51:45.644Z,1593.00
2023-03-21T12:52:45.755Z,1595.00
2023-03-21T12:53:45.616Z,1595.00
2023-03-21T12:55:45.647Z,1595.00
2023-03-21T12:56:45.612Z,1600.00
2023-03-21T12:57:56.512Z,1605.00
2023-03-21T12:58:45.580Z,1610.00
2023-03-21T12:59:45.581Z,1612.00
2023-03-21T13:00:45.792Z,1614.00
2023-03-21T13:01:45.573Z,1617.00
2023-03-21T13:02:45.587Z,1620.00
2023-03-21T13:03:45.686Z,1622.00
2023-03-21T13:04:45.543Z,1624.00
2023-03-21T13:05:45.532Z,1623.00
2023-03-21T13:06:45.532Z,1621.00
2023-03-21T13:07:45.524Z,1623.00
2023-03-21T13:08:45.625Z,1625.00
2023-03-21T13:09:45.516Z,1626.00
2023-03-21T13:10:45.500Z,1625.00
2023-03-21T13:11:45.497Z,1625.00
2023-03-21T13:12:45.479Z,1627.00
2023-03-21T13:13:45.467Z,1625.00
2023-03-21T13:14:45.465Z,1625.00
2023-03-21T13:15:45.459Z,1626.00
2023-03-21T13:16:45.517Z,1624.00
2023-03-21T13:17:45.435Z,1622.00
2023-03-21T13:18:45.454Z,1622.00
2023-03-21T13:19:45.455Z,1620.00
2023-03-21T13:20:45.414Z,1621.00
2023-03-21T13:21:45.412Z,1617.00
2023-03-21T13:23:45.404Z,1612.00
2023-03-21T13:24:45.513Z,1613.00
2023-03-21T13:25:45.392Z,1612.00
2023-03-21T13:26:45.410Z,1615.00
2023-03-21T13:27:45.366Z,1618.00
2023-03-21T13:28:45.358Z,1618.00
2023-03-21T13:29:45.366Z,1614.00
2023-03-21T13:32:45.449Z,1609.00
2023-03-21T13:33:45.329Z,1610.00
2023-03-21T13:34:45.322Z,1612.00
2023-03-21T13:35:45.405Z,1609.00
2023-03-21T13:37:45.290Z,1609.00
2023-03-21T13:38:45.279Z,1609.00
2023-03-21T13:39:45.279Z,1605.00
2023-03-21T13:40:45.399Z,1609.00
2023-03-21T13:41:45.285Z,1610.00
2023-03-21T13:42:45.268Z,1606.00
2023-03-21T13:43:45.252Z,1606.00
2023-03-21T13:44:45.243Z,1602.00
2023-03-21T13:45:45.358Z,1594.00
2023-03-21T13:46:53.465Z,1588.00
2023-03-21T13:47:45.314Z,1585.00
2023-03-21T13:48:57.872Z,1581.00
2023-03-21T13:49:45.211Z,1578.00
2023-03-21T13:50:45.189Z,1579.00
2023-03-21T13:51:45.218Z,1583.00
2023-03-21T13:53:45.175Z,1579.00
2023-03-21T13:56:45.299Z,1579.00
2023-03-21T13:58:45.149Z,1579.00
2023-03-21T13:59:45.144Z,1577.00
2023-03-21T14:00:45.125Z,1573.00
2023-03-21T14:01:45.212Z,1573.00
2023-03-21T14:02:45.132Z,1571.00
2023-03-21T14:03:45.141Z,1569.00
2023-03-21T14:05:45.100Z,1569.00
2023-03-21T14:06:45.132Z,1569.00
2023-03-21T14:07:45.093Z,1567.00
2023-03-21T14:08:45.070Z,1566.00
2023-03-21T14:09:45.077Z,1562.00
2023-03-21T14:10:45.050Z,1560.00
2023-03-21T14:11:46.995Z,1556.00
2023-03-21T14:12:45.069Z,1557.00
2023-03-21T14:13:51.221Z,1556.00
2023-03-21T14:14:45.041Z,1553.00
2023-03-21T14:15:54.890Z,1548.00
2023-03-21T14:16:45.018Z,1543.00
2023-03-21T14:17:45.028Z,1539.00
2023-03-21T14:18:53.866Z,1535.00
2023-03-21T14:19:45.005Z,1531.00
2023-03-21T14:25:47.821Z,1527.00
2023-03-21T14:26:44.956Z,1523.00
2023-03-21T14:27:44.964Z,1521.00
2023-03-21T14:32:44.928Z,1507.00
2023-03-21T14:44:54.511Z,1497.00
2023-03-21T15:47:44.993Z,1485.00
2023-03-21T15:48:45.080Z,1485.00
2023-03-21T15:49:44.983Z,1485.00
2023-03-21T15:50:44.997Z,1483.00
2023-03-21T15:51:45.037Z,1480.00
2023-03-21T15:52:45.050Z,1474.00
2023-03-21T15:54:45.076Z,1473.00
2023-03-21T15:55:45.113Z,1467.00
2023-03-21T15:57:45.175Z,1458.00
2023-03-21T15:58:45.222Z,1452.00
2023-03-21T16:01:45.304Z,1429.00
2023-03-21T16:02:45.316Z,1421.00
2023-03-21T16:03:45.326Z,1417.00
2023-03-21T16:04:45.475Z,1411.00
2023-03-21T16:05:45.397Z,1403.00
2023-03-21T16:07:45.491Z,1390.00
2023-03-21T16:08:45.512Z,1384.00
2023-03-21T16:09:45.533Z,1383.00
2023-03-21T16:10:45.589Z,1380.00
2023-03-21T16:11:45.639Z,1377.00
2023-03-21T16:13:45.689Z,1387.00
2023-03-21T16:14:45.723Z,1386.00
2023-03-21T16:16:45.874Z,1381.00
2023-03-21T16:18:45.866Z,1375.00
2023-03-21T16:19:45.858Z,1377.00
2023-03-21T16:21:45.930Z,1386.00
2023-03-21T16:22:45.996Z,1383.00
2023-03-21T16:23:44.981Z,1374.00
2023-03-21T16:24:46.021Z,1373.00
2023-03-21T16:25:46.088Z,1373.00
2023-03-21T16:26:46.111Z,1368.00
2023-03-21T16:27:46.166Z,1365.00
2023-03-21T16:28:46.199Z,1365.00
2023-03-21T16:29:46.265Z,1359.00
2023-03-21T16:30:46.329Z,1357.00
2023-03-21T16:31:46.468Z,1354.00
2023-03-21T16:32:46.413Z,1348.00
2023-03-21T16:33:46.504Z,1346.00
2023-03-21T16:34:46.498Z,1343.00
2023-03-21T16:35:46.624Z,1336.00
2023-03-21T16:36:45.652Z,1333.00
2023-03-21T16:37:45.611Z,1324.00
2023-03-21T16:38:46.692Z,1320.00
2023-03-21T16:39:46.736Z,1310.00
2023-03-21T16:40:46.735Z,1305.00
2023-03-21T16:41:46.777Z,1303.00
2023-03-21T16:42:46.812Z,1302.00
2023-03-21T16:43:46.887Z,1298.00
2023-03-21T16:44:46.888Z,1297.00
2023-03-21T16:45:47.010Z,1297.00
2023-03-21T16:46:46.961Z,1297.00
2023-03-21T16:47:47.041Z,1293.00
2023-03-21T16:48:47.058Z,1291.00
2023-03-21T16:49:47.072Z,1288.00
2023-03-21T16:50:47.108Z,1288.00
2023-03-21T16:51:47.160Z,1289.00
2023-03-21T16:52:47.227Z,1286.00
2023-03-21T16:53:47.228Z,1287.00
2023-03-21T16:54:46.292Z,1284.00
2023-03-21T16:55:47.305Z,1279.00
2023-03-21T16:56:47.337Z,1275.00
2023-03-21T16:57:47.362Z,1274.00
2023-03-21T16:58:47.396Z,1274.00
2023-03-21T16:59:47.442Z,1275.00
2023-03-21T17:00:47.474Z,1272.00
2023-03-21T17:01:47.529Z,1274.00
2023-03-21T17:02:47.589Z,1270.00
2023-03-21T17:03:46.557Z,1270.00
2023-03-21T17:04:47.586Z,1268.00
2023-03-21T17:05:47.626Z,1267.00
2023-03-21T17:06:47.670Z,1266.00
2023-03-21T17:07:47.695Z,1266.00
2023-03-21T17:08:47.783Z,1269.00
2023-03-21T17:09:47.779Z,1266.00
2023-03-21T17:10:47.820Z,1266.00
2023-03-21T17:11:47.859Z,1263.00
2023-03-21T17:12:47.877Z,1264.00
2023-03-21T17:13:47.932Z,1274.00
2023-03-21T17:14:48.030Z,1286.00
2023-03-21T17:15:48.013Z,1289.00
2023-03-21T17:16:48.083Z,1288.00
2023-03-21T17:17:48.099Z,1283.00
2023-03-21T17:18:48.152Z,1275.00
2023-03-21T17:19:47.182Z,1275.00
2023-03-21T17:20:48.236Z,1275.00
2023-03-21T17:21:48.276Z,1278.00
2023-03-21T17:22:48.321Z,1272.00
2023-03-21T17:23:48.372Z,1270.00
2023-03-21T17:24:47.430Z,1267.00
2023-03-21T17:25:48.466Z,1267.00
2023-03-21T17:26:48.500Z,1267.00
2023-03-21T17:27:48.541Z,1267.00
2023-03-21T17:28:48.590Z,1266.00
2023-03-21T17:29:48.700Z,1267.00
2023-03-21T17:30:47.743Z,1260.00
2023-03-21T17:31:48.731Z,1251.00
2023-03-21T17:32:48.792Z,1248.00
2023-03-21T17:33:48.834Z,1244.00
2023-03-21T17:34:48.863Z,1243.00
2023-03-21T17:35:47.987Z,1238.00
2023-03-21T17:36:48.954Z,1231.00
2023-03-21T17:37:49.003Z,1233.00
2023-03-21T17:38:49.052Z,1237.00
2023-03-21T17:39:49.098Z,1241.00
2023-03-21T17:40:50.543Z,1239.00
2023-03-21T17:41:48.187Z,1237.00
2023-03-21T17:42:49.227Z,1233.00
2023-03-21T17:43:48.272Z,1231.00
2023-03-21T17:44:49.331Z,1228.00
2023-03-21T17:45:49.576Z,1227.00
2023-03-21T17:46:51.587Z,1221.00
2023-03-21T17:47:49.452Z,1223.00
2023-03-21T17:48:49.418Z,1223.00
2023-03-21T17:49:49.397Z,1218.00
2023-03-21T17:50:48.389Z,1214.00
2023-03-21T17:51:49.386Z,1215.00
2023-03-21T17:52:50.565Z,1210.00
2023-03-21T17:53:48.395Z,1209.00
2023-03-21T17:54:49.361Z,1211.00
2023-03-21T17:55:49.422Z,1207.00
2023-03-21T17:56:48.504Z,1202.00
2023-03-21T17:57:49.554Z,1195.00
2023-03-21T17:58:49.564Z,1197.00
2023-03-21T17:59:49.597Z,1197.00
2023-03-21T18:00:49.652Z,1195.00
2023-03-21T18:01:49.736Z,1194.00
2023-03-21T18:02:49.738Z,1194.00
2023-03-21T18:03:49.813Z,1188.00
2023-03-21T18:04:49.891Z,1182.00
2023-03-21T18:05:49.907Z,1178.00
2023-03-21T18:06:49.948Z,1175.00
2023-03-21T18:08:50.014Z,1174.00
2023-03-21T18:09:49.995Z,1169.00
2023-03-21T18:10:49.995Z,1167.00
2023-03-21T18:11:50.010Z,1167.00
2023-03-21T18:12:48.984Z,1163.00
2023-03-21T18:13:48.990Z,1163.00
2023-03-21T18:14:49.979Z,1163.00
2023-03-21T18:15:50.037Z,1158.00
2023-03-21T18:16:50.050Z,1156.00
2023-03-21T18:17:49.946Z,1151.00
2023-03-21T18:18:49.945Z,1152.00
2023-03-21T18:19:50.545Z,1151.00
2023-03-21T18:20:52.618Z,1145.00
2023-03-21T18:21:49.909Z,1141.00
2023-03-21T18:22:50.282Z,1138.00
2023-03-21T18:23:48.888Z,1134.00
2023-03-21T18:24:49.891Z,1132.00
2023-03-21T18:25:49.879Z,1132.00
2023-03-21T18:26:49.858Z,1130.00
2023-03-21T18:28:10.058Z,1131.00
2023-03-21T18:29:34.258Z,1129.00
2023-03-21T18:31:07.852Z,1131.00
2023-03-21T18:32:04.856Z,1126.00
2023-03-21T18:32:49.860Z,1123.00
2023-03-21T18:33:48.816Z,1119.00
2023-03-21T18:34:49.825Z,1112.00
2023-03-21T18:35:53.812Z,1113.00
2023-03-21T18:36:49.797Z,1108.00
2023-03-21T18:37:50.200Z,1110.00
2023-03-21T18:38:49.781Z,1109.00
2023-03-21T18:39:49.786Z,1104.00
2023-03-21T18:40:49.771Z,1100.00
2023-03-21T18:41:50.056Z,1099.00
2023-03-21T18:43:45.642Z,1099.00
2023-03-21T18:44:02.672Z,1097.00
2023-03-21T18:44:49.739Z,1093.00
2023-03-21T18:45:49.718Z,1090.00
2023-03-21T18:46:49.783Z,1087.00
2023-03-21T18:47:49.756Z,1086.00
2023-03-21T18:48:49.203Z,1082.00
2023-03-21T18:50:49.680Z,1075.00
2023-03-21T18:51:49.680Z,1072.00
2023-03-21T18:52:49.681Z,1069.00
2023-03-21T18:53:49.671Z,1069.00
2023-03-21T18:54:49.667Z,1067.00
2023-03-21T18:55:52.349Z,1065.00
2023-03-21T18:57:49.641Z,1058.00
2023-03-21T18:58:49.643Z,1055.00
2023-03-21T18:59:48.645Z,1052.00